createdAt,value
2023-03-26T00:02:15.851Z,100.00
2023-03-26T00:04:47.109Z,100.00
2023-03-26T00:07:16.695Z,100.00
2023-03-26T00:09:45.165Z,100.00
2023-03-26T00:12:13.880Z,100.00
2023-03-26T00:14:43.861Z,100.00
2023-03-26T00:17:13.722Z,100.00
2023-03-26T00:19:43.327Z,100.00
2023-03-26T00:22:13.872Z,100.00
2023-03-26T00:24:45.992Z,100.00
2023-03-26T00:27:14.940Z,100.00
2023-03-26T00:29:43.316Z,100.00
2023-03-26T00:32:11.905Z,100.00
2023-03-26T00:34:42.970Z,100.00
2023-03-26T00:37:14.490Z,100.00
2023-03-26T00:39:43.222Z,100.00
2023-03-26T00:42:14.981Z,100.00
2023-03-26T00:44:43.765Z,100.00
2023-03-26T00:47:13.287Z,100.00
2023-03-26T00:49:47.853Z,100.00
2023-03-26T00:52:23.507Z,100.00
2023-03-26T00:54:54.152Z,100.00
2023-03-26T00:57:34.563Z,100.00
2023-03-26T01:00:16.026Z,100.00
2023-03-26T01:02:46.758Z,100.00
2023-03-26T01:05:49.632Z,100.00
2023-03-26T01:08:30.905Z,100.00
2023-03-26T01:11:07.281Z,100.00
2023-03-26T01:13:39.691Z,100.00
2023-03-26T01:16:20.985Z,100.00
2023-03-26T01:18:50.490Z,100.00
2023-03-26T01:21:30.449Z,100.00
2023-03-26T01:24:02.528Z,100.00
2023-03-26T01:26:46.660Z,100.00
2023-03-26T01:29:24.256Z,100.00
2023-03-26T01:32:03.715Z,100.00
2023-03-26T01:34:43.734Z,100.00
2023-03-26T01:37:21.266Z,100.00
2023-03-26T01:39:57.188Z,100.00
2023-03-26T01:42:35.198Z,100.00
2023-03-26T01:45:14.667Z,100.00
2023-03-26T01:47:45.720Z,100.00
2023-03-26T01:50:14.473Z,100.00
2023-03-26T01:52:43.368Z,100.00
2023-03-26T01:55:14.958Z,100.00
2023-03-26T01:57:53.980Z,100.00
2023-03-26T02:00:27.665Z,100.00
2023-03-26T02:03:06.677Z,100.00
2023-03-26T02:05:39.777Z,100.00
2023-03-26T02:08:16.826Z,100.00
2023-03-26T02:10:53.005Z,100.00
2023-03-26T02:13:22.174Z,100.00
2023-03-26T02:15:59.592Z,100.00
2023-03-26T02:18:36.598Z,100.00
2023-03-26T02:21:10.245Z,100.00
2023-03-26T02:23:40.781Z,100.00
2023-03-26T02:26:12.438Z,100.00
2023-03-26T02:28:41.050Z,100.00
2023-03-26T02:31:11.387Z,100.00
2023-03-26T02:33:40.089Z,100.00
2023-03-26T02:36:11.067Z,100.00
2023-03-26T02:38:40.068Z,100.00
2023-03-26T02:41:08.836Z,100.00
2023-03-26T02:43:38.949Z,100.00
2023-03-26T02:46:07.782Z,100.00
2023-03-26T02:48:36.519Z,100.00
2023-03-26T02:51:06.872Z,100.00
2023-03-26T02:53:37.705Z,100.00
2023-03-26T02:56:07.249Z,100.00
2023-03-26T02:58:36.469Z,100.00
2023-03-26T03:01:06.745Z,100.00
2023-03-26T03:03:36.605Z,100.00
2023-03-26T03:06:05.333Z,100.00
2023-03-26T03:08:34.159Z,100.00
2023-03-26T03:11:04.251Z,100.00
2023-03-26T03:13:32.753Z,100.00
2023-03-26T03:16:01.594Z,100.00
2023-03-26T03:18:31.955Z,100.00
2023-03-26T03:21:01.134Z,100.00
2023-03-26T03:23:29.687Z,100.00
2023-03-26T03:25:59.267Z,100.00
2023-03-26T03:28:28.491Z,100.00
2023-03-26T03:30:59.341Z,100.00
2023-03-26T03:33:28.058Z,100.00
2023-03-26T03:35:59.598Z,100.00
2023-03-26T03:38:28.034Z,100.00
2023-03-26T03:40:56.936Z,100.00
2023-03-26T03:43:25.625Z,100.00
2023-03-26T03:45:54.491Z,100.00
2023-03-26T03:48:23.249Z,100.00
2023-03-26T03:50:51.938Z,100.00
2023-03-26T03:53:22.012Z,100.00
2023-03-26T03:55:53.688Z,100.00
2023-03-26T03:58:23.202Z,100.00
2023-03-26T04:00:52.605Z,100.00
2023-03-26T04:03:33.949Z,100.00
2023-03-26T04:06:07.082Z,100.00
2023-03-26T04:08:37.508Z,100.00
2023-03-26T04:11:06.558Z,100.00
2023-03-26T04:13:35.134Z,100.00
2023-03-26T04:16:04.158Z,100.00
2023-03-26T04:18:33.322Z,100.00
2023-03-26T04:21:03.254Z,100.00
2023-03-26T04:23:31.753Z,100.00
2023-03-26T04:26:05.631Z,100.00
2023-03-26T04:28:42.485Z,100.00
2023-03-26T04:31:16.011Z,100.00
2023-03-26T04:33:47.932Z,100.00
2023-03-26T04:36:18.057Z,100.00
2023-03-26T04:38:49.424Z,100.00
2023-03-26T04:41:19.503Z,100.00
2023-03-26T04:43:50.833Z,100.00
2023-03-26T04:46:22.049Z,100.00
2023-03-26T04:48:51.118Z,100.00
2023-03-26T04:51:22.134Z,100.00
2023-03-26T04:53:54.571Z,100.00
2023-03-26T04:56:36.123Z,100.00
2023-03-26T04:59:06.218Z,100.00
2023-03-26T05:01:38.052Z,100.00
2023-03-26T05:04:06.593Z,100.00
2023-03-26T05:06:35.142Z,100.00
2023-03-26T05:09:04.097Z,100.00
2023-03-26T05:11:33.810Z,100.00
2023-03-26T05:14:02.294Z,100.00
2023-03-26T05:16:32.289Z,100.00
2023-03-26T05:19:00.665Z,100.00
2023-03-26T05:21:29.151Z,100.00
2023-03-26T05:23:57.480Z,100.00
2023-03-26T05:26:26.312Z,100.00
2023-03-26T05:28:56.348Z,100.00
2023-03-26T05:31:27.193Z,100.00
2023-03-26T05:33:56.359Z,100.00
2023-03-26T05:36:25.383Z,100.00
2023-03-26T05:38:54.946Z,100.00
2023-03-26T05:41:23.357Z,100.00
2023-03-26T05:43:52.145Z,100.00
2023-03-26T05:46:23.376Z,100.00
2023-03-26T05:48:52.502Z,100.00
2023-03-26T05:51:20.920Z,100.00
2023-03-26T05:53:49.405Z,100.00
2023-03-26T05:56:17.817Z,100.00
2023-03-26T05:58:45.909Z,100.00
2023-03-26T06:01:17.160Z,100.00
2023-03-26T06:03:48.664Z,100.00
2023-03-26T06:06:19.954Z,100.00
2023-03-26T06:09:01.607Z,100.00
2023-03-26T06:11:31.346Z,100.00
2023-03-26T06:13:59.610Z,100.00
2023-03-26T06:16:28.494Z,100.00
2023-03-26T06:18:59.175Z,100.00
2023-03-26T06:21:28.859Z,100.00
2023-03-26T06:23:57.136Z,100.00
2023-03-26T06:26:26.105Z,100.00
2023-03-26T06:28:54.893Z,100.00
2023-03-26T06:31:23.411Z,100.00
2023-03-26T06:33:52.379Z,100.00
2023-03-26T06:36:22.400Z,100.00
2023-03-26T06:38:51.424Z,100.00
2023-03-26T06:41:19.719Z,100.00
2023-03-26T06:43:48.078Z,100.00
2023-03-26T06:46:16.934Z,100.00
2023-03-26T06:48:45.464Z,100.00
2023-03-26T06:51:14.266Z,100.00
2023-03-26T06:53:44.241Z,100.00
2023-03-26T06:56:12.846Z,100.00
2023-03-26T06:58:41.568Z,100.00
2023-03-26T07:01:10.259Z,100.00
2023-03-26T07:03:39.002Z,100.00
2023-03-26T07:06:08.590Z,100.00
2023-03-26T07:08:37.256Z,100.00
2023-03-26T07:11:07.942Z,100.00
2023-03-26T07:13:37.813Z,100.00
2023-03-26T07:16:07.313Z,100.00
2023-03-26T07:18:36.017Z,100.00
2023-03-26T07:21:04.918Z,100.00
2023-03-26T07:23:33.803Z,100.00
2023-03-26T07:26:12.502Z,100.00
2023-03-26T07:29:04.731Z,100.00
2023-03-26T07:31:43.531Z,100.00
2023-03-26T07:34:26.431Z,100.00
2023-03-26T07:37:04.669Z,100.00
2023-03-26T07:39:46.522Z,100.00
2023-03-26T07:42:29.634Z,100.00
2023-03-26T07:45:05.247Z,100.00
2023-03-26T07:47:35.587Z,100.00
2023-03-26T07:50:05.152Z,100.00
2023-03-26T07:52:34.657Z,100.00
2023-03-26T07:55:03.664Z,100.00
2023-03-26T07:57:44.494Z,100.00
2023-03-26T08:00:19.287Z,100.00
2023-03-26T08:03:05.161Z,100.00
2023-03-26T08:05:36.376Z,100.00
2023-03-26T08:08:14.696Z,100.00
2023-03-26T08:10:55.947Z,100.00
2023-03-26T08:13:29.428Z,100.00
2023-03-26T08:16:05.594Z,100.00
2023-03-26T08:18:48.350Z,100.00
2023-03-26T08:21:21.246Z,100.00
2023-03-26T08:24:00.585Z,100.00
2023-03-26T08:26:38.675Z,100.00
2023-03-26T08:29:15.358Z,100.00
2023-03-26T08:31:48.236Z,100.00
2023-03-26T08:34:16.935Z,100.00
2023-03-26T08:36:46.342Z,100.00
2023-03-26T08:39:14.720Z,100.00
2023-03-26T08:42:34.366Z,100.00
2023-03-26T08:45:35.399Z,100.00
2023-03-26T08:48:56.315Z,100.00
2023-03-26T08:52:05.667Z,100.00
2023-03-26T08:55:06.654Z,100.00
2023-03-26T08:58:05.224Z,100.00
2023-03-26T09:00:47.122Z,100.00
2023-03-26T09:03:38.353Z,100.00
2023-03-26T09:06:34.056Z,100.00
2023-03-26T09:09:46.766Z,100.00
2023-03-26T09:12:59.487Z,100.00
2023-03-26T09:16:06.623Z,100.00
2023-03-26T09:18:55.139Z,100.00
2023-03-26T09:21:51.613Z,100.00
2023-03-26T09:24:39.490Z,100.00
2023-03-26T09:27:30.315Z,100.00
2023-03-26T09:30:23.178Z,100.00
2023-03-26T09:33:28.499Z,100.00
2023-03-26T09:36:19.292Z,100.00
2023-03-26T09:38:54.343Z,100.00
2023-03-26T09:41:37.962Z,100.00
2023-03-26T09:44:50.983Z,100.00
2023-03-26T09:47:50.029Z,100.00
2023-03-26T09:50:54.200Z,100.00
2023-03-26T09:53:41.097Z,100.00
2023-03-26T09:56:27.346Z,100.00
2023-03-26T09:59:34.103Z,100.00
2023-03-26T10:02:18.551Z,100.00
2023-03-26T10:05:10.351Z,100.00
2023-03-26T10:08:12.748Z,100.00
2023-03-26T10:10:48.887Z,100.00
2023-03-26T10:13:27.543Z,100.00
2023-03-26T10:16:08.505Z,100.00
2023-03-26T10:18:50.157Z,100.00
2023-03-26T10:21:28.553Z,100.00
2023-03-26T10:24:28.140Z,100.00
2023-03-26T10:27:10.907Z,100.00
2023-03-26T10:30:08.070Z,100.00
2023-03-26T10:32:45.509Z,100.00
2023-03-26T10:35:28.819Z,100.00
2023-03-26T10:38:15.504Z,100.00
2023-03-26T10:40:52.972Z,100.00
2023-03-26T10:44:08.707Z,100.00
2023-03-26T10:46:52.617Z,100.00
2023-03-26T10:49:41.270Z,100.00
2023-03-26T10:52:13.296Z,100.00
2023-03-26T10:54:51.920Z,100.00
2023-03-26T10:57:30.610Z,100.00
2023-03-26T11:00:08.319Z,100.00
2023-03-26T11:02:43.135Z,100.00
2023-03-26T11:05:26.821Z,100.00
2023-03-26T11:08:03.168Z,100.00
2023-03-26T11:10:42.814Z,100.00
2023-03-26T11:13:20.329Z,100.00
2023-03-26T11:15:57.826Z,100.00
2023-03-26T11:18:36.565Z,100.00
2023-03-26T11:21:19.815Z,100.00
2023-03-26T11:24:05.873Z,100.00
2023-03-26T11:26:47.418Z,100.00
2023-03-26T11:29:35.340Z,100.00
2023-03-26T11:32:10.969Z,100.00
2023-03-26T11:34:42.166Z,100.00
2023-03-26T11:37:18.202Z,100.00
2023-03-26T11:39:51.454Z,100.00
2023-03-26T11:42:24.523Z,100.00
2023-03-26T11:44:57.230Z,100.00
2023-03-26T11:47:33.831Z,100.00
2023-03-26T11:50:05.193Z,100.00
2023-03-26T11:52:34.127Z,100.00
2023-03-26T11:55:03.523Z,100.00
2023-03-26T11:57:36.314Z,100.00
2023-03-26T12:00:16.872Z,100.00
2023-03-26T12:02:49.017Z,100.00
2023-03-26T12:05:20.633Z,100.00
2023-03-26T12:07:54.900Z,100.00
2023-03-26T12:10:26.772Z,100.00
2023-03-26T12:12:58.334Z,100.00
2023-03-26T12:15:28.293Z,100.00
2023-03-26T12:18:00.332Z,100.00
2023-03-26T12:20:36.151Z,100.00
2023-03-26T12:23:08.324Z,100.00
2023-03-26T12:25:40.275Z,100.00
2023-03-26T12:28:21.057Z,100.00
2023-03-26T12:30:59.585Z,100.00
2023-03-26T12:33:34.477Z,100.00
2023-03-26T12:36:20.679Z,100.00
2023-03-26T12:39:16.317Z,100.00
2023-03-26T12:44:42.719Z,100.00
2023-03-26T12:44:54.243Z,100.00
2023-03-26T12:48:00.710Z,100.00
2023-03-26T12:50:17.140Z,100.00
2023-03-26T12:53:08.304Z,100.00
2023-03-26T12:55:42.928Z,100.00
2023-03-26T12:58:34.250Z,100.00
2023-03-26T13:01:15.846Z,100.00
2023-03-26T13:04:15.454Z,100.00
2023-03-26T13:07:01.314Z,100.00
2023-03-26T13:10:15.802Z,100.00
2023-03-26T13:12:53.610Z,100.00
2023-03-26T13:15:33.200Z,100.00
2023-03-26T13:18:13.375Z,100.00
2023-03-26T13:20:54.190Z,100.00
2023-03-26T13:23:36.577Z,100.00
2023-03-26T13:26:15.697Z,100.00
2023-03-26T13:28:53.936Z,100.00
2023-03-26T13:31:26.133Z,100.00
2023-03-26T13:34:02.108Z,100.00
2023-03-26T13:36:38.565Z,100.00
2023-03-26T13:39:22.500Z,100.00
2023-03-26T13:42:12.170Z,100.00
2023-03-26T13:44:52.824Z,100.00
2023-03-26T13:47:38.228Z,100.00
2023-03-26T13:50:16.228Z,100.00
2023-03-26T13:52:52.371Z,100.00
2023-03-26T13:55:28.571Z,100.00
2023-03-26T13:58:05.284Z,100.00
2023-03-26T14:00:54.689Z,100.00
2023-03-26T14:03:32.368Z,100.00
2023-03-26T14:06:04.972Z,100.00
2023-03-26T14:08:37.880Z,95.98
2023-03-26T14:11:13.605Z,99.34
2023-03-26T14:13:47.636Z,100.00
2023-03-26T14:16:19.167Z,100.00
2023-03-26T14:18:56.325Z,100.00
2023-03-26T14:21:48.962Z,100.00
2023-03-26T14:24:49.689Z,100.00
2023-03-26T14:27:32.650Z,100.00
2023-03-26T14:30:25.021Z,100.00
2023-03-26T14:33:04.425Z,100.00
2023-03-26T14:35:39.006Z,100.00
2023-03-26T14:38:48.916Z,100.00
2023-03-26T14:41:25.467Z,100.00
2023-03-26T14:44:25.728Z,100.00
2023-03-26T14:47:10.204Z,100.00
2023-03-26T14:50:04.751Z,100.00
2023-03-26T14:52:44.460Z,100.00
2023-03-26T14:55:18.551Z,100.00
2023-03-26T14:58:02.723Z,100.00
2023-03-26T15:01:04.053Z,100.00
2023-03-26T15:04:20.198Z,100.00
2023-03-26T15:07:23.502Z,100.00
2023-03-26T15:10:12.696Z,100.00
2023-03-26T15:13:10.339Z,100.00
2023-03-26T15:16:17.914Z,100.00
2023-03-26T15:19:31.606Z,100.00
2023-03-26T15:22:50.527Z,100.00
2023-03-26T15:25:58.675Z,100.00
2023-03-26T15:29:03.887Z,100.00
2023-03-26T15:31:55.915Z,99.99
2023-03-26T15:35:06.315Z,98.19
2023-03-26T15:38:21.037Z,93.53
2023-03-26T15:41:02.021Z,88.83
2023-03-26T15:44:23.854Z,89.65
2023-03-26T15:47:01.515Z,70.99
2023-03-26T15:49:42.936Z,63.85
2023-03-26T15:52:25.710Z,56.01
2023-03-26T15:55:05.223Z,54.98
2023-03-26T15:57:41.297Z,54.81
2023-03-26T16:00:23.321Z,54.96
2023-03-26T16:03:12.289Z,52.87
2023-03-26T16:05:56.521Z,51.63
2023-03-26T16:08:38.790Z,51.10
2023-03-26T16:11:12.725Z,50.43
2023-03-26T16:13:42.977Z,50.96
2023-03-26T16:16:51.563Z,53.31
2023-03-26T16:19:52.557Z,52.50
2023-03-26T16:22:43.765Z,52.51
2023-03-26T16:25:28.271Z,55.84
2023-03-26T16:28:31.122Z,56.51
2023-03-26T16:31:38.138Z,56.45
2023-03-26T16:34:31.811Z,58.77
2023-03-26T16:37:09.231Z,59.01
2023-03-26T16:39:42.967Z,62.17
2023-03-26T16:42:38.853Z,61.06
2023-03-26T16:45:24.732Z,58.81
2023-03-26T16:48:03.237Z,61.22
2023-03-26T16:50:43.890Z,60.59
2023-03-26T16:53:30.600Z,65.03
2023-03-26T16:56:05.207Z,63.06
2023-03-26T16:58:40.158Z,64.42
2023-03-26T17:01:12.171Z,63.54
2023-03-26T17:03:51.137Z,64.78
2023-03-26T17:06:34.996Z,64.10
2023-03-26T17:09:17.817Z,66.25
2023-03-26T17:11:58.973Z,66.75
2023-03-26T17:14:41.728Z,69.40
2023-03-26T17:17:36.899Z,71.71
2023-03-26T17:20:18.233Z,69.18
2023-03-26T17:22:49.304Z,71.35
2023-03-26T17:25:30.998Z,74.32
2023-03-26T17:28:17.768Z,75.33
2023-03-26T17:31:04.514Z,72.29
2023-03-26T17:33:36.951Z,72.22
2023-03-26T17:36:42.409Z,75.96
2023-03-26T17:39:22.940Z,78.71
2023-03-26T17:42:02.715Z,79.91
2023-03-26T17:44:41.951Z,78.14
2023-03-26T17:47:20.022Z,77.39
2023-03-26T17:49:54.703Z,76.89
2023-03-26T17:52:29.475Z,76.57
2023-03-26T17:54:59.020Z,86.23
2023-03-26T17:57:40.325Z,80.45
2023-03-26T18:00:17.500Z,78.59
2023-03-26T18:02:51.375Z,77.35
2023-03-26T18:05:20.164Z,79.35
2023-03-26T18:08:33.934Z,82.18
2023-03-26T18:11:19.590Z,86.34
2023-03-26T18:14:27.885Z,94.30
2023-03-26T18:17:00.272Z,88.64
2023-03-26T18:19:29.976Z,91.70
2023-03-26T18:22:01.437Z,95.46
2023-03-26T18:24:32.712Z,100.00
2023-03-26T18:27:06.791Z,100.00
2023-03-26T18:29:38.321Z,100.00
2023-03-26T18:32:26.417Z,100.00
2023-03-26T18:34:58.370Z,100.00
2023-03-26T18:37:30.075Z,100.00
2023-03-26T18:40:02.280Z,100.00
2023-03-26T18:42:33.526Z,100.00
2023-03-26T18:45:09.816Z,100.00
2023-03-26T18:47:38.579Z,100.00
2023-03-26T18:50:08.306Z,100.00
2023-03-26T18:52:37.159Z,100.00
2023-03-26T18:55:06.043Z,100.00
2023-03-26T18:57:35.490Z,100.00
2023-03-26T19:00:20.689Z,100.00
2023-03-26T19:02:52.058Z,100.00
2023-03-26T19:05:21.432Z,100.00
2023-03-26T19:07:52.458Z,100.00
2023-03-26T19:10:23.400Z,100.00
2023-03-26T19:12:59.792Z,100.00
2023-03-26T19:15:32.649Z,100.00
2023-03-26T19:18:07.564Z,100.00
2023-03-26T19:20:42.371Z,100.00
2023-03-26T19:23:16.032Z,100.00
2023-03-26T19:25:49.188Z,100.00
2023-03-26T19:28:21.286Z,100.00
2023-03-26T19:30:56.387Z,100.00
2023-03-26T19:33:26.607Z,100.00
2023-03-26T19:36:03.920Z,100.00
2023-03-26T19:38:43.749Z,100.00
2023-03-26T19:41:21.519Z,100.00
2023-03-26T19:43:51.788Z,100.00
2023-03-26T19:46:25.103Z,100.00
2023-03-26T19:48:55.757Z,100.00
2023-03-26T19:51:26.332Z,100.00
2023-03-26T19:53:56.684Z,100.00
2023-03-26T19:56:25.744Z,100.00
2023-03-26T19:58:54.854Z,100.00
2023-03-26T20:01:26.829Z,100.00
2023-03-26T20:04:00.006Z,100.00
2023-03-26T20:06:42.285Z,100.00
2023-03-26T20:09:12.563Z,100.00
2023-03-26T20:11:41.346Z,100.00
2023-03-26T20:14:15.370Z,100.00
2023-03-26T20:16:46.169Z,100.00
2023-03-26T20:19:15.780Z,100.00
2023-03-26T20:21:44.970Z,100.00
2023-03-26T20:24:16.061Z,100.00
2023-03-26T20:26:45.082Z,100.00
2023-03-26T20:29:14.840Z,100.00
2023-03-26T20:31:45.434Z,100.00
2023-03-26T20:34:18.934Z,100.00
2023-03-26T20:36:48.455Z,100.00
2023-03-26T20:39:16.670Z,100.00
2023-03-26T20:41:47.830Z,100.00
2023-03-26T20:44:18.208Z,100.00
2023-03-26T20:46:49.762Z,100.00
2023-03-26T20:49:19.846Z,100.00
2023-03-26T20:51:49.683Z,100.00
2023-03-26T20:54:20.451Z,100.00
2023-03-26T20:56:49.557Z,100.00
2023-03-26T20:59:22.521Z,100.00
2023-03-26T21:01:52.517Z,100.00
2023-03-26T21:04:22.570Z,100.00
2023-03-26T21:06:51.710Z,100.00
2023-03-26T21:09:24.329Z,100.00
2023-03-26T21:12:01.278Z,100.00
2023-03-26T21:14:35.098Z,100.00
2023-03-26T21:17:06.030Z,100.00
2023-03-26T21:19:35.421Z,100.00
2023-03-26T21:22:20.220Z,100.00
2023-03-26T21:25:02.963Z,100.00
2023-03-26T21:27:40.515Z,100.00
2023-03-26T21:30:14.529Z,100.00
2023-03-26T21:32:45.101Z,100.00
2023-03-26T21:35:16.559Z,100.00
2023-03-26T21:37:48.723Z,100.00
2023-03-26T21:40:18.745Z,100.00
2023-03-26T21:42:50.170Z,100.00
2023-03-26T21:45:19.913Z,100.00
2023-03-26T21:47:51.562Z,100.00
2023-03-26T21:50:23.097Z,100.00
2023-03-26T21:52:52.348Z,100.00
2023-03-26T21:55:22.650Z,100.00
2023-03-26T21:58:23.559Z,100.00
2023-03-26T22:01:08.981Z,100.00
2023-03-26T22:03:56.529Z,100.00
2023-03-26T22:06:32.489Z,100.00
2023-03-26T22:09:01.183Z,100.00
2023-03-26T22:11:29.973Z,100.00
2023-03-26T22:13:58.546Z,100.00
2023-03-26T22:16:27.102Z,100.00
2023-03-26T22:18:57.074Z,100.00
2023-03-26T22:21:25.351Z,100.00
2023-03-26T22:23:54.399Z,100.00
2023-03-26T22:26:23.957Z,100.00
2023-03-26T22:28:53.319Z,100.00
2023-03-26T22:31:24.865Z,100.00
2023-03-26T22:33:53.799Z,100.00
2023-03-26T22:36:25.391Z,100.00
2023-03-26T22:38:55.563Z,100.00
2023-03-26T22:41:24.300Z,100.00
2023-03-26T22:43:54.865Z,100.00
2023-03-26T22:46:24.357Z,100.00
2023-03-26T22:48:53.060Z,100.00
2023-03-26T22:51:23.102Z,100.00
2023-03-26T22:53:51.231Z,100.00
2023-03-26T22:56:19.799Z,100.00
2023-03-26T22:58:49.131Z,100.00
2023-03-26T23:01:19.521Z,100.00
2023-03-26T23:03:49.081Z,100.00
2023-03-26T23:06:18.017Z,100.00
2023-03-26T23:08:48.552Z,100.00
2023-03-26T23:11:18.933Z,100.00
2023-03-26T23:13:50.045Z,100.00
2023-03-26T23:16:20.013Z,100.00
2023-03-26T23:18:48.938Z,100.00
2023-03-26T23:21:19.772Z,100.00
2023-03-26T23:23:52.844Z,100.00
2023-03-26T23:26:21.819Z,100.00
2023-03-26T23:28:51.250Z,100.00
2023-03-26T23:31:19.619Z,100.00
2023-03-26T23:33:48.218Z,100.00
2023-03-26T23:36:19.310Z,100.00
2023-03-26T23:38:50.014Z,100.00
2023-03-26T23:41:21.723Z,100.00
2023-03-26T23:43:55.836Z,100.00
2023-03-26T23:46:24.961Z,100.00
2023-03-26T23:48:53.863Z,100.00
2023-03-26T23:51:24.283Z,100.00
2023-03-26T23:53:54.547Z,100.00
2023-03-26T23:56:23.027Z,100.00
2023-03-26T23:58:51.406Z,100.00
